createdAt,value
2023-01-03T00:00:12.518Z,101358.41
2023-01-03T00:05:14.811Z,101375.25
2023-01-03T00:10:16.970Z,101378.91
2023-01-03T00:15:19.138Z,101382.41
2023-01-03T00:20:21.940Z,101389.16
2023-01-03T00:25:24.085Z,101385.72
2023-01-03T00:30:26.300Z,101380.84
2023-01-03T00:35:28.446Z,101395.91
2023-01-03T00:40:30.589Z,101394.00
2023-01-03T00:45:35.492Z,101398.78
2023-01-03T00:50:38.210Z,101406.97
2023-01-03T00:55:40.511Z,101409.59
2023-01-03T01:00:42.678Z,101395.87
2023-01-03T01:05:44.801Z,101413.44
2023-01-03T01:11:01.985Z,101413.91
2023-01-03T01:16:09.524Z,101410.66
2023-01-03T01:21:16.455Z,101417.28
2023-01-03T01:26:22.393Z,101424.41
2023-01-03T01:31:26.677Z,101423.72
2023-01-03T01:36:31.709Z,101423.94
2023-01-03T01:41:53.967Z,101413.44
2023-01-03T01:46:56.502Z,101410.78
2023-01-03T01:51:58.732Z,101401.44
2023-01-03T01:57:00.848Z,101415.12
2023-01-03T02:02:03.193Z,101413.72
2023-01-03T02:07:07.061Z,101426.87
2023-01-03T02:12:40.278Z,101428.16
2023-01-03T02:18:10.247Z,101419.72
2023-01-03T02:23:42.270Z,101419.38
2023-01-03T02:29:42.650Z,101425.81
2023-01-03T02:35:02.162Z,101412.00
2023-01-03T02:40:26.289Z,101424.97
2023-01-03T02:46:00.165Z,101432.97
2023-01-03T02:51:08.764Z,101436.75
2023-01-03T02:56:17.751Z,101434.38
2023-01-03T03:01:20.906Z,101436.28
2023-01-03T03:06:58.948Z,101439.22
2023-01-03T03:12:22.127Z,101440.16
2023-01-03T03:17:29.438Z,101431.50
2023-01-03T03:22:58.949Z,101435.09
2023-01-03T03:28:24.636Z,101431.00
2023-01-03T03:33:30.686Z,101434.97
2023-01-03T03:38:42.816Z,101438.88
2023-01-03T03:44:28.377Z,101446.75
2023-01-03T03:49:37.879Z,101451.19
2023-01-03T03:54:45.044Z,101437.72
2023-01-03T03:59:53.650Z,101438.56
2023-01-03T04:05:00.694Z,101440.44
2023-01-03T04:10:03.703Z,101448.69
2023-01-03T04:15:07.137Z,101453.34
2023-01-03T04:20:11.097Z,101452.44
2023-01-03T04:25:13.325Z,101442.78
2023-01-03T04:30:15.502Z,101443.56
2023-01-03T04:35:17.698Z,101460.97
2023-01-03T04:40:19.837Z,101467.44
2023-01-03T04:45:22.206Z,101454.37
2023-01-03T04:50:24.526Z,101464.00
2023-01-03T04:55:26.856Z,101459.34
2023-01-03T05:00:29.006Z,101462.19
2023-01-03T05:05:31.234Z,101468.63
2023-01-03T05:10:33.441Z,101478.22
2023-01-03T05:15:38.319Z,101468.41
2023-01-03T05:20:59.201Z,101482.28
2023-01-03T05:26:04.476Z,101488.09
2023-01-03T05:31:06.638Z,101490.06
2023-01-03T05:36:09.885Z,101501.56
2023-01-03T05:41:13.218Z,101511.19
2023-01-03T05:46:15.373Z,101511.44
2023-01-03T05:51:17.710Z,101515.84
2023-01-03T05:56:20.318Z,101522.59
2023-01-03T06:01:22.579Z,101529.16
2023-01-03T06:06:24.903Z,101529.13
2023-01-03T06:11:27.215Z,101526.75
2023-01-03T06:16:47.923Z,101517.78
2023-01-03T06:21:50.138Z,101528.50
2023-01-03T06:26:52.310Z,101522.44
2023-01-03T06:31:54.504Z,101521.19
2023-01-03T06:36:56.900Z,101516.47
2023-01-03T06:42:19.626Z,101529.34
2023-01-03T06:47:44.898Z,101536.56
2023-01-03T06:53:05.843Z,101542.88
2023-01-03T06:58:08.236Z,101551.38
2023-01-03T07:03:11.633Z,101562.09
2023-01-03T07:08:14.123Z,101560.50
2023-01-03T07:13:35.288Z,101577.47
2023-01-03T07:18:37.415Z,101571.69
2023-01-03T07:23:39.653Z,101582.13
2023-01-03T07:28:41.785Z,101579.66
2023-01-03T07:33:45.219Z,101578.38
2023-01-03T07:38:47.920Z,101577.84
2023-01-03T07:43:50.140Z,101582.28
2023-01-03T07:48:55.034Z,101594.41
2023-01-03T07:53:57.241Z,101587.75
2023-01-03T07:58:59.940Z,101585.16
2023-01-03T08:04:02.166Z,101603.31
2023-01-03T08:09:27.281Z,101612.41
2023-01-03T08:14:29.427Z,101621.97
2023-01-03T08:19:31.648Z,101614.81
2023-01-03T08:24:33.771Z,101624.62
2023-01-03T08:29:35.986Z,101632.97
2023-01-03T08:34:41.844Z,101633.19
2023-01-03T08:39:53.697Z,101643.59
2023-01-03T08:45:01.754Z,101631.81
2023-01-03T08:50:04.804Z,101634.06
2023-01-03T08:55:08.301Z,101636.47
2023-01-03T09:00:11.470Z,101648.25
2023-01-03T09:05:13.703Z,101648.59
2023-01-03T09:10:15.877Z,101649.34
2023-01-03T09:15:18.220Z,101649.34
2023-01-03T09:20:20.472Z,101651.47
2023-01-03T09:25:23.240Z,101651.13
2023-01-03T09:30:25.455Z,101658.06
2023-01-03T09:35:27.630Z,101653.41
2023-01-03T09:40:31.929Z,101653.97
2023-01-03T09:45:35.382Z,101659.47
2023-01-03T09:51:05.988Z,101660.16
2023-01-03T09:56:19.732Z,101653.78
2023-01-03T10:01:58.341Z,101646.87
2023-01-03T10:07:14.961Z,101646.41
2023-01-03T10:12:32.445Z,101648.34
2023-01-03T10:17:48.972Z,101640.16
2023-01-03T10:22:55.470Z,101647.37
2023-01-03T10:28:16.056Z,101638.13
2023-01-03T10:33:23.400Z,101639.06
2023-01-03T10:38:26.336Z,101629.38
2023-01-03T10:43:45.185Z,101638.59
2023-01-03T10:49:25.893Z,101649.03
2023-01-03T10:54:21.022Z,101635.72
2023-01-03T10:59:27.797Z,101623.50
2023-01-03T11:04:31.893Z,101613.75
2023-01-03T11:09:52.848Z,101602.75
2023-01-03T11:14:57.241Z,101618.44
2023-01-03T11:19:59.491Z,101603.91
2023-01-03T11:25:26.619Z,101602.06
2023-01-03T11:31:06.975Z,101600.81
2023-01-03T11:36:30.776Z,101587.94
2023-01-03T11:41:58.234Z,101598.19
2023-01-03T11:47:19.056Z,101606.31
2023-01-03T11:52:39.784Z,101598.88
2023-01-03T11:57:44.914Z,101597.91
2023-01-03T12:03:01.803Z,101587.00
2023-01-03T12:08:03.902Z,101592.56
2023-01-03T12:13:42.422Z,101581.56
2023-01-03T12:18:54.987Z,101585.63
2023-01-03T12:24:05.705Z,101588.91
2023-01-03T12:29:46.001Z,101582.41
2023-01-03T12:34:54.171Z,101587.34
2023-01-03T12:40:27.718Z,101576.44
2023-01-03T12:45:42.744Z,101580.34
2023-01-03T12:50:50.554Z,101582.66
2023-01-03T12:56:15.262Z,101581.00
2023-01-03T13:01:45.994Z,101574.44
2023-01-03T13:06:58.993Z,101587.69
2023-01-03T13:12:08.632Z,101588.84
2023-01-03T13:17:18.149Z,101584.59
2023-01-03T13:22:26.077Z,101583.50
2023-01-03T13:27:36.412Z,101583.41
2023-01-03T13:33:05.039Z,101595.63
2023-01-03T13:38:25.596Z,101587.25
2023-01-03T13:43:39.714Z,101593.00
2023-01-03T13:48:53.952Z,101598.97
2023-01-03T13:54:15.522Z,101601.50
2023-01-03T13:59:23.990Z,101599.94
2023-01-03T14:04:54.901Z,101597.91
2023-01-03T14:10:17.005Z,101591.34
2023-01-03T14:15:26.262Z,101594.56
2023-01-03T14:20:34.144Z,101600.06
2023-01-03T14:25:38.814Z,101603.37
2023-01-03T14:30:41.554Z,101614.59
2023-01-03T14:35:44.729Z,101628.62
2023-01-03T14:40:48.401Z,101631.50
2023-01-03T14:46:06.199Z,101634.84
2023-01-03T14:51:12.414Z,101632.44
2023-01-03T14:56:25.962Z,101639.63
2023-01-03T15:01:29.069Z,101632.84
2023-01-03T15:06:32.656Z,101636.63
2023-01-03T15:11:56.418Z,101645.72
2023-01-03T15:17:16.331Z,101637.00
2023-01-03T15:22:21.374Z,101654.66
2023-01-03T15:27:43.131Z,101651.94
2023-01-03T15:33:19.900Z,101662.44
2023-01-03T15:38:39.617Z,101670.22
2023-01-03T15:43:42.207Z,101670.44
2023-01-03T15:48:54.220Z,101666.25
2023-01-03T15:53:56.434Z,101673.41
2023-01-03T15:59:07.196Z,101682.59
2023-01-03T16:04:10.337Z,101687.03
2023-01-03T16:09:12.737Z,101699.56
2023-01-03T16:14:19.063Z,101706.09
2023-01-03T16:19:24.711Z,101712.06
2023-01-03T16:24:27.004Z,101704.34
2023-01-03T16:29:29.133Z,101703.16
2023-01-03T16:34:33.813Z,101701.59
2023-01-03T16:39:36.195Z,101714.78
2023-01-03T16:44:42.878Z,101712.81
2023-01-03T16:49:47.515Z,101727.28
2023-01-03T16:54:50.233Z,101715.44
2023-01-03T16:59:52.392Z,101731.81
2023-01-03T17:17:31.976Z,101743.62
2023-01-03T17:22:35.786Z,101742.22
2023-01-03T17:27:38.152Z,101755.69
2023-01-03T17:32:40.389Z,101755.47
2023-01-03T17:38:14.157Z,101753.78
2023-01-03T17:43:27.289Z,101762.13
2023-01-03T17:49:14.904Z,101768.00
2023-01-03T18:00:31.326Z,101775.75
2023-01-03T18:05:33.590Z,101783.03
2023-01-03T18:10:46.401Z,101790.81
2023-01-03T18:15:50.056Z,101781.50
2023-01-03T18:20:52.844Z,101784.47
2023-01-03T18:25:57.222Z,101773.25
2023-01-03T18:30:59.870Z,101791.62
2023-01-03T18:36:02.188Z,101785.16
2023-01-03T18:41:06.091Z,101801.03
2023-01-03T18:46:16.408Z,101806.00
2023-01-03T18:51:22.581Z,101807.09
2023-01-03T18:56:36.941Z,101809.16
2023-01-03T19:01:39.827Z,101806.00
2023-01-03T19:06:45.522Z,101793.25
2023-01-03T19:11:48.025Z,101788.91
2023-01-03T19:16:50.193Z,101787.34
2023-01-03T19:21:52.599Z,101798.72
2023-01-03T19:27:03.179Z,101797.13
2023-01-03T19:32:15.448Z,101812.19
2023-01-03T19:37:18.194Z,101799.06
2023-01-03T19:42:40.157Z,101807.66
2023-01-03T19:47:42.640Z,101808.03
2023-01-03T19:52:48.623Z,101804.91
2023-01-03T19:57:51.362Z,101814.59
2023-01-03T20:02:57.099Z,101813.75
2023-01-03T20:07:59.427Z,101814.44
2023-01-03T20:13:03.120Z,101811.69
2023-01-03T20:18:22.019Z,101812.84
2023-01-03T20:23:24.854Z,101811.34
2023-01-03T20:28:29.597Z,101813.66
2023-01-03T20:33:31.892Z,101822.97
2023-01-03T20:38:35.494Z,101834.38
2023-01-03T20:43:37.765Z,101824.88
2023-01-03T20:48:39.938Z,101829.31
2023-01-03T20:53:43.233Z,101830.03
2023-01-03T20:58:46.498Z,101822.94
2023-01-03T21:03:48.696Z,101814.69
2023-01-03T21:08:54.588Z,101801.78
2023-01-03T21:14:00.863Z,101804.16
2023-01-03T21:19:07.643Z,101810.53
2023-01-03T21:24:12.075Z,101803.84
2023-01-03T21:29:22.965Z,101813.37
2023-01-03T21:34:25.139Z,101817.00
2023-01-03T21:39:27.294Z,101818.16
2023-01-03T21:44:29.555Z,101819.25
2023-01-03T21:49:31.729Z,101820.31
2023-01-03T21:54:33.841Z,101825.28
2023-01-03T21:59:41.071Z,101826.56
2023-01-03T22:04:43.268Z,101834.16
2023-01-03T22:10:03.702Z,101843.59
2023-01-03T22:15:06.424Z,101841.91
2023-01-03T22:20:14.357Z,101843.69
2023-01-03T22:25:20.584Z,101835.59
2023-01-03T22:30:23.290Z,101839.97
2023-01-03T22:35:25.453Z,101833.87
2023-01-03T22:40:27.580Z,101839.59
2023-01-03T22:45:29.807Z,101831.59
2023-01-03T22:50:32.015Z,101845.53
2023-01-03T22:55:34.500Z,101846.22
2023-01-03T23:00:36.970Z,101848.34
2023-01-03T23:05:39.123Z,101852.88
2023-01-03T23:10:41.242Z,101850.69
2023-01-03T23:15:43.407Z,101865.69
2023-01-03T23:20:48.979Z,101865.75
2023-01-03T23:25:51.155Z,101858.78
2023-01-03T23:30:53.440Z,101860.59
2023-01-03T23:35:55.650Z,101851.72
2023-01-03T23:40:57.919Z,101842.78
2023-01-03T23:46:00.181Z,101843.13
2023-01-03T23:51:03.612Z,101838.88
2023-01-03T23:56:07.894Z,101833.28
